sensor_id;sensor_type;location;lat;lon;timestamp;temperature;humidity
20370;DHT22;10344;47.592;9.600;2022-10-15T09:10:52;21.00;99.90
20370;DHT22;10344;47.592;9.600;2022-10-15T09:13:36;22.10;99.90
20370;DHT22;10344;47.592;9.600;2022-10-15T09:16:11;22.50;99.90
20370;DHT22;10344;47.592;9.600;2022-10-15T09:18:41;23.40;99.90
20370;DHT22;10344;47.592;9.600;2022-10-15T09:21:09;23.50;99.90
20370;DHT22;10344;47.592;9.600;2022-10-15T09:23:37;23.80;99.90
20370;DHT22;10344;47.592;9.600;2022-10-15T09:42:45;20.30;99.90
20370;DHT22;10344;47.592;9.600;2022-10-15T09:45:14;19.70;99.90
20370;DHT22;10344;47.592;9.600;2022-10-15T09:47:42;19.60;99.90
20370;DHT22;10344;47.592;9.600;2022-10-15T09:50:12;19.60;99.90
20370;DHT22;10344;47.592;9.600;2022-10-15T09:53:16;19.40;99.90
20370;DHT22;10344;47.592;9.600;2022-10-15T09:55:45;19.40;99.90
20370;DHT22;10344;47.592;9.600;2022-10-15T09:58:25;19.30;99.90
20370;DHT22;10344;47.592;9.600;2022-10-15T10:01:06;19.20;99.90
20370;DHT22;10344;47.592;9.600;2022-10-15T10:03:34;19.10;99.90
20370;DHT22;10344;47.592;9.600;2022-10-15T10:06:13;19.10;99.90
20370;DHT22;10344;47.592;9.600;2022-10-15T10:08:52;19.10;99.90
20370;DHT22;10344;47.592;9.600;2022-10-15T10:11:20;19.10;99.90
20370;DHT22;10344;47.592;9.600;2022-10-15T10:13:55;19.00;99.90
20370;DHT22;10344;47.592;9.600;2022-10-15T10:16:22;19.10;99.90
20370;DHT22;10344;47.592;9.600;2022-10-15T10:21:34;18.90;99.90
20370;DHT22;10344;47.592;9.600;2022-10-15T10:24:27;18.70;99.90
20370;DHT22;10344;47.592;9.600;2022-10-15T10:26:55;18.80;99.90
20370;DHT22;10344;47.592;9.600;2022-10-15T10:29:22;19.00;99.90
20370;DHT22;10344;47.592;9.600;2022-10-15T10:31:48;19.20;99.90
20370;DHT22;10344;47.592;9.600;2022-10-15T10:34:25;19.20;99.90
20370;DHT22;10344;47.592;9.600;2022-10-15T10:36:52;19.20;99.90
20370;DHT22;10344;47.592;9.600;2022-10-15T10:42:06;19.40;99.90
20370;DHT22;10344;47.592;9.600;2022-10-15T10:44:37;19.40;99.90
20370;DHT22;10344;47.592;9.600;2022-10-15T10:47:11;19.40;99.90
20370;DHT22;10344;47.592;9.600;2022-10-15T10:49:57;19.40;99.90
20370;DHT22;10344;47.592;9.600;2022-10-15T10:55:23;19.40;99.90
20370;DHT22;10344;47.592;9.600;2022-10-15T10:57:56;19.20;99.90
20370;DHT22;10344;47.592;9.600;2022-10-15T11:00:45;19.20;99.90
20370;DHT22;10344;47.592;9.600;2022-10-15T11:48:15;18.00;99.90
20370;DHT22;10344;47.592;9.600;2022-10-15T11:50:59;18.00;99.90
20370;DHT22;10344;47.592;9.600;2022-10-15T11:54:42;18.20;99.90
20370;DHT22;10344;47.592;9.600;2022-10-15T11:56:40;18.20;99.90
20370;DHT22;10344;47.592;9.600;2022-10-15T12:04:43;18.60;99.90
20370;DHT22;10344;47.592;9.600;2022-10-15T12:07:25;18.50;99.90
20370;DHT22;10344;47.592;9.600;2022-10-15T12:09:58;18.50;99.90
20370;DHT22;10344;47.592;9.600;2022-10-15T12:12:30;18.60;99.90
20370;DHT22;10344;47.592;9.600;2022-10-15T12:15:12;18.50;99.90
20370;DHT22;10344;47.592;9.600;2022-10-15T12:20:57;18.50;99.90
20370;DHT22;10344;47.592;9.600;2022-10-15T12:23:40;18.60;99.90
20370;DHT22;10344;47.592;9.600;2022-10-15T12:28:55;18.50;99.90
20370;DHT22;10344;47.592;9.600;2022-10-15T12:31:21;18.60;99.90
20370;DHT22;10344;47.592;9.600;2022-10-15T12:36:25;18.80;99.90
20370;DHT22;10344;47.592;9.600;2022-10-15T12:39:03;18.80;99.90
20370;DHT22;10344;47.592;9.600;2022-10-15T12:41:42;18.90;99.90
20370;DHT22;10344;47.592;9.600;2022-10-15T12:44:14;19.00;99.90
20370;DHT22;10344;47.592;9.600;2022-10-15T12:46:43;19.10;99.90
20370;DHT22;10344;47.592;9.600;2022-10-15T12:51:58;19.10;99.90
20370;DHT22;10344;47.592;9.600;2022-10-15T12:54:43;19.20;99.90
20370;DHT22;10344;47.592;9.600;2022-10-15T12:59:59;19.40;99.90
20370;DHT22;10344;47.592;9.600;2022-10-15T13:02:54;19.40;99.90
20370;DHT22;10344;47.592;9.600;2022-10-15T13:05:31;19.30;99.90
20370;DHT22;10344;47.592;9.600;2022-10-15T13:07:59;19.30;99.90
20370;DHT22;10344;47.592;9.600;2022-10-15T13:10:49;19.60;99.90
20370;DHT22;10344;47.592;9.600;2022-10-15T13:13:21;19.70;99.90
20370;DHT22;10344;47.592;9.600;2022-10-15T13:15:58;19.70;99.90
20370;DHT22;10344;47.592;9.600;2022-10-15T13:18:48;19.60;99.90
20370;DHT22;10344;47.592;9.600;2022-10-15T13:21:15;19.70;99.90
20370;DHT22;10344;47.592;9.600;2022-10-15T13:27:02;19.80;99.90
20370;DHT22;10344;47.592;9.600;2022-10-15T13:30:28;19.80;99.90
20370;DHT22;10344;47.592;9.600;2022-10-15T13:32:55;19.60;99.90
20370;DHT22;10344;47.592;9.600;2022-10-15T13:35:25;19.70;99.90
20370;DHT22;10344;47.592;9.600;2022-10-15T13:37:55;19.80;99.90
20370;DHT22;10344;47.592;9.600;2022-10-15T13:40:23;20.00;99.90
20370;DHT22;10344;47.592;9.600;2022-10-15T13:43:03;20.00;99.90
20370;DHT22;10344;47.592;9.600;2022-10-15T13:45:29;20.20;99.90
20370;DHT22;10344;47.592;9.600;2022-10-15T13:47:57;20.20;99.90
20370;DHT22;10344;47.592;9.600;2022-10-15T13:50:29;20.00;99.90
20370;DHT22;10344;47.592;9.600;2022-10-15T13:55:31;19.70;99.90
20370;DHT22;10344;47.592;9.600;2022-10-15T13:58:26;19.90;99.90
20370;DHT22;10344;47.592;9.600;2022-10-15T14:00:59;19.90;99.90
20370;DHT22;10344;47.592;9.600;2022-10-15T14:03:28;20.00;99.90
20370;DHT22;10344;47.592;9.600;2022-10-15T14:05:56;20.10;99.90
20370;DHT22;10344;47.592;9.600;2022-10-15T14:08:32;20.10;99.90
20370;DHT22;10344;47.592;9.600;2022-10-15T14:10:59;20.20;99.90
20370;DHT22;10344;47.592;9.600;2022-10-15T14:13:25;20.10;99.90
20370;DHT22;10344;47.592;9.600;2022-10-15T14:15:53;19.90;99.90
20370;DHT22;10344;47.592;9.600;2022-10-15T14:18:29;19.80;99.90
20370;DHT22;10344;47.592;9.600;2022-10-15T14:20:58;19.70;99.90
20370;DHT22;10344;47.592;9.600;2022-10-15T14:23:25;19.80;99.90
20370;DHT22;10344;47.592;9.600;2022-10-15T14:25:59;19.70;99.90
20370;DHT22;10344;47.592;9.600;2022-10-15T14:28:27;19.80;99.90
20370;DHT22;10344;47.592;9.600;2022-10-15T14:30:54;19.80;99.90
20370;DHT22;10344;47.592;9.600;2022-10-15T14:33:39;19.80;99.90
20370;DHT22;10344;47.592;9.600;2022-10-15T14:36:28;19.80;99.90
20370;DHT22;10344;47.592;9.600;2022-10-15T14:41:57;19.70;99.90
20370;DHT22;10344;47.592;9.600;2022-10-15T14:44:22;19.70;99.90
20370;DHT22;10344;47.592;9.600;2022-10-15T14:46:51;19.70;99.90
20370;DHT22;10344;47.592;9.600;2022-10-15T14:49:26;19.70;99.90
20370;DHT22;10344;47.592;9.600;2022-10-15T14:51:59;19.70;99.90
20370;DHT22;10344;47.592;9.600;2022-10-15T14:54:33;19.70;99.90
20370;DHT22;10344;47.592;9.600;2022-10-15T14:56:59;19.70;99.90
20370;DHT22;10344;47.592;9.600;2022-10-15T14:59:29;19.60;99.90
20370;DHT22;10344;47.592;9.600;2022-10-15T15:02:00;19.50;99.90
20370;DHT22;10344;47.592;9.600;2022-10-15T15:04:36;19.50;99.90
20370;DHT22;10344;47.592;9.600;2022-10-15T15:07:09;19.40;99.90
20370;DHT22;10344;47.592;9.600;2022-10-15T15:09:36;19.30;99.90
20370;DHT22;10344;47.592;9.600;2022-10-15T15:12:04;19.20;99.90
20370;DHT22;10344;47.592;9.600;2022-10-15T15:14:33;19.10;99.90
20370;DHT22;10344;47.592;9.600;2022-10-15T15:16:58;19.00;99.90
20370;DHT22;10344;47.592;9.600;2022-10-15T15:19:24;19.00;99.90
20370;DHT22;10344;47.592;9.600;2022-10-15T15:21:49;19.00;99.90
20370;DHT22;10344;47.592;9.600;2022-10-15T15:24:15;18.90;99.90
20370;DHT22;10344;47.592;9.600;2022-10-15T15:26:43;18.80;99.90
20370;DHT22;10344;47.592;9.600;2022-10-15T15:29:11;18.80;99.90
20370;DHT22;10344;47.592;9.600;2022-10-15T15:31:40;18.70;99.90
20370;DHT22;10344;47.592;9.600;2022-10-15T15:34:05;18.70;99.90
20370;DHT22;10344;47.592;9.600;2022-10-15T15:36:31;18.70;99.90
20370;DHT22;10344;47.592;9.600;2022-10-15T15:38:56;18.60;99.90
20370;DHT22;10344;47.592;9.600;2022-10-15T15:41:23;18.50;99.90
20370;DHT22;10344;47.592;9.600;2022-10-15T15:43:50;18.40;99.90
20370;DHT22;10344;47.592;9.600;2022-10-15T15:46:16;18.30;99.90
20370;DHT22;10344;47.592;9.600;2022-10-15T15:48:44;18.20;99.90
20370;DHT22;10344;47.592;9.600;2022-10-15T15:53:46;18.10;99.90
20370;DHT22;10344;47.592;9.600;2022-10-15T15:56:12;18.10;99.90
20370;DHT22;10344;47.592;9.600;2022-10-15T15:58:40;18.00;99.90
20370;DHT22;10344;47.592;9.600;2022-10-15T16:01:11;18.00;99.90
20370;DHT22;10344;47.592;9.600;2022-10-15T16:03:37;17.90;99.90
20370;DHT22;10344;47.592;9.600;2022-10-15T16:06:05;17.90;99.90
20370;DHT22;10344;47.592;9.600;2022-10-15T16:08:35;17.80;99.90
20370;DHT22;10344;47.592;9.600;2022-10-15T16:11:06;17.70;99.90
20370;DHT22;10344;47.592;9.600;2022-10-15T16:13:34;17.60;99.90
20370;DHT22;10344;47.592;9.600;2022-10-15T16:16:00;17.60;99.90
20370;DHT22;10344;47.592;9.600;2022-10-15T16:18:27;17.50;99.90
20370;DHT22;10344;47.592;9.600;2022-10-15T16:20:53;17.50;99.90
20370;DHT22;10344;47.592;9.600;2022-10-15T16:23:19;17.40;99.90
20370;DHT22;10344;47.592;9.600;2022-10-15T16:25:45;17.30;99.90
20370;DHT22;10344;47.592;9.600;2022-10-15T16:28:10;17.30;99.90
20370;DHT22;10344;47.592;9.600;2022-10-15T16:30:36;17.20;99.90
20370;DHT22;10344;47.592;9.600;2022-10-15T16:33:02;17.20;99.90
20370;DHT22;10344;47.592;9.600;2022-10-15T16:35:30;17.20;99.90
20370;DHT22;10344;47.592;9.600;2022-10-15T16:37:55;17.10;99.90
20370;DHT22;10344;47.592;9.600;2022-10-15T16:40:25;17.10;99.90
20370;DHT22;10344;47.592;9.600;2022-10-15T16:42:50;17.00;99.90
20370;DHT22;10344;47.592;9.600;2022-10-15T16:45:16;16.90;99.90
20370;DHT22;10344;47.592;9.600;2022-10-15T16:47:41;16.80;99.90
20370;DHT22;10344;47.592;9.600;2022-10-15T16:50:08;16.80;99.90
20370;DHT22;10344;47.592;9.600;2022-10-15T16:52:34;16.80;99.90
20370;DHT22;10344;47.592;9.600;2022-10-15T16:54:59;16.70;99.90
20370;DHT22;10344;47.592;9.600;2022-10-15T16:57:25;16.70;99.90
20370;DHT22;10344;47.592;9.600;2022-10-15T16:59:51;16.60;99.90
20370;DHT22;10344;47.592;9.600;2022-10-15T17:02:16;16.50;99.90
20370;DHT22;10344;47.592;9.600;2022-10-15T17:05:01;16.60;99.90
20370;DHT22;10344;47.592;9.600;2022-10-15T17:07:46;16.50;99.90
20370;DHT22;10344;47.592;9.600;2022-10-15T17:10:12;16.30;99.90
20370;DHT22;10344;47.592;9.600;2022-10-15T17:12:45;16.20;99.90
20370;DHT22;10344;47.592;9.600;2022-10-15T17:15:11;16.10;99.90
20370;DHT22;10344;47.592;9.600;2022-10-15T17:17:39;16.00;99.90
20370;DHT22;10344;47.592;9.600;2022-10-15T17:20:05;15.90;99.90
20370;DHT22;10344;47.592;9.600;2022-10-15T17:22:33;15.90;99.90
20370;DHT22;10344;47.592;9.600;2022-10-15T17:25:02;15.80;99.90
20370;DHT22;10344;47.592;9.600;2022-10-15T17:27:32;15.80;99.90
20370;DHT22;10344;47.592;9.600;2022-10-15T17:30:01;15.70;99.90
20370;DHT22;10344;47.592;9.600;2022-10-15T17:32:26;15.60;99.90
20370;DHT22;10344;47.592;9.600;2022-10-15T17:34:59;15.50;99.90
20370;DHT22;10344;47.592;9.600;2022-10-15T17:37:25;15.40;99.90
20370;DHT22;10344;47.592;9.600;2022-10-15T17:39:57;15.40;99.90
20370;DHT22;10344;47.592;9.600;2022-10-15T17:42:28;15.30;99.90
20370;DHT22;10344;47.592;9.600;2022-10-15T17:45:11;15.30;99.90
20370;DHT22;10344;47.592;9.600;2022-10-15T17:47:39;15.20;99.90
20370;DHT22;10344;47.592;9.600;2022-10-15T17:50:08;15.20;99.90
20370;DHT22;10344;47.592;9.600;2022-10-15T17:52:41;15.20;99.90
20370;DHT22;10344;47.592;9.600;2022-10-15T17:55:10;15.10;99.90
20370;DHT22;10344;47.592;9.600;2022-10-15T17:57:40;15.10;99.90
20370;DHT22;10344;47.592;9.600;2022-10-15T18:00:25;15.00;99.90
20370;DHT22;10344;47.592;9.600;2022-10-15T18:02:57;15.10;99.90
20370;DHT22;10344;47.592;9.600;2022-10-15T18:05:32;15.10;99.90
20370;DHT22;10344;47.592;9.600;2022-10-15T18:08:02;15.10;99.90
20370;DHT22;10344;47.592;9.600;2022-10-15T18:10:31;15.10;99.90
20370;DHT22;10344;47.592;9.600;2022-10-15T18:13:06;15.10;99.90
20370;DHT22;10344;47.592;9.600;2022-10-15T18:15:45;15.10;99.90
20370;DHT22;10344;47.592;9.600;2022-10-15T18:18:17;15.10;99.90
20370;DHT22;10344;47.592;9.600;2022-10-15T18:21:25;15.10;99.90
20370;DHT22;10344;47.592;9.600;2022-10-15T18:23:54;15.10;99.90
20370;DHT22;10344;47.592;9.600;2022-10-15T18:26:46;15.20;99.90
20370;DHT22;10344;47.592;9.600;2022-10-15T18:29:17;15.20;99.90
20370;DHT22;10344;47.592;9.600;2022-10-15T18:31:52;15.20;99.90
20370;DHT22;10344;47.592;9.600;2022-10-15T18:34:24;15.10;99.90
20370;DHT22;10344;47.592;9.600;2022-10-15T18:36:54;15.10;99.90
20370;DHT22;10344;47.592;9.600;2022-10-15T18:39:44;15.00;99.90
20370;DHT22;10344;47.592;9.600;2022-10-15T18:42:14;15.00;99.90
20370;DHT22;10344;47.592;9.600;2022-10-15T18:44:41;15.00;99.90
20370;DHT22;10344;47.592;9.600;2022-10-15T18:47:10;15.00;99.90
20370;DHT22;10344;47.592;9.600;2022-10-15T18:49:52;14.90;99.90
20370;DHT22;10344;47.592;9.600;2022-10-15T18:52:41;14.90;99.90
20370;DHT22;10344;47.592;9.600;2022-10-15T18:55:32;14.90;99.90
20370;DHT22;10344;47.592;9.600;2022-10-15T18:58:14;14.80;99.90
20370;DHT22;10344;47.592;9.600;2022-10-15T19:01:09;14.80;99.90
20370;DHT22;10344;47.592;9.600;2022-10-15T19:03:44;14.80;99.90
20370;DHT22;10344;47.592;9.600;2022-10-15T19:06:33;14.70;99.90
20370;DHT22;10344;47.592;9.600;2022-10-15T19:09:07;14.70;99.90
20370;DHT22;10344;47.592;9.600;2022-10-15T19:11:41;14.70;99.90
20370;DHT22;10344;47.592;9.600;2022-10-15T19:14:12;14.70;99.90
20370;DHT22;10344;47.592;9.600;2022-10-15T19:17:13;14.60;99.90
20370;DHT22;10344;47.592;9.600;2022-10-15T19:19:56;14.70;99.90
20370;DHT22;10344;47.592;9.600;2022-10-15T19:22:32;14.70;99.90
20370;DHT22;10344;47.592;9.600;2022-10-15T19:24:58;14.70;99.90
20370;DHT22;10344;47.592;9.600;2022-10-15T19:27:43;14.70;99.90
20370;DHT22;10344;47.592;9.600;2022-10-15T19:30:14;14.80;99.90
20370;DHT22;10344;47.592;9.600;2022-10-15T19:32:49;14.80;99.90
20370;DHT22;10344;47.592;9.600;2022-10-15T19:35:18;14.90;99.90
20370;DHT22;10344;47.592;9.600;2022-10-15T19:38:06;14.90;99.90
20370;DHT22;10344;47.592;9.600;2022-10-15T19:40:42;14.90;99.90
20370;DHT22;10344;47.592;9.600;2022-10-15T19:43:19;14.90;99.90
20370;DHT22;10344;47.592;9.600;2022-10-15T19:45:48;14.90;99.90
20370;DHT22;10344;47.592;9.600;2022-10-15T19:48:33;14.90;99.90
20370;DHT22;10344;47.592;9.600;2022-10-15T19:51:07;14.90;99.90
20370;DHT22;10344;47.592;9.600;2022-10-15T19:53:34;14.80;99.90
20370;DHT22;10344;47.592;9.600;2022-10-15T19:56:06;14.80;99.90
20370;DHT22;10344;47.592;9.600;2022-10-15T19:59:03;14.80;99.90
20370;DHT22;10344;47.592;9.600;2022-10-15T20:01:32;14.80;99.90
20370;DHT22;10344;47.592;9.600;2022-10-15T20:04:28;14.70;99.90
20370;DHT22;10344;47.592;9.600;2022-10-15T20:06:59;14.70;99.90
20370;DHT22;10344;47.592;9.600;2022-10-15T20:09:49;14.70;99.90
20370;DHT22;10344;47.592;9.600;2022-10-15T20:12:21;14.60;99.90
20370;DHT22;10344;47.592;9.600;2022-10-15T20:15:09;14.60;99.90
20370;DHT22;10344;47.592;9.600;2022-10-15T20:17:42;14.60;99.90
20370;DHT22;10344;47.592;9.600;2022-10-15T20:20:15;14.70;99.90
20370;DHT22;10344;47.592;9.600;2022-10-15T20:23:13;14.70;99.90
20370;DHT22;10344;47.592;9.600;2022-10-15T20:25:45;14.60;99.90
20370;DHT22;10344;47.592;9.600;2022-10-15T20:28:12;14.60;99.90
20370;DHT22;10344;47.592;9.600;2022-10-15T20:30:51;14.60;99.90
